createdAt,value
2024-03-12T00:01:18.758Z,23.85
2024-03-12T00:03:46.812Z,23.31
2024-03-12T00:06:14.598Z,24.26
2024-03-12T00:08:42.497Z,24.14
2024-03-12T00:11:10.400Z,24.26
2024-03-12T00:13:38.112Z,23.72
2024-03-12T00:16:06.398Z,23.24
2024-03-12T00:18:35.799Z,23.66
2024-03-12T00:21:04.259Z,24.06
2024-03-12T00:23:32.441Z,24.21
2024-03-12T00:26:00.040Z,24.13
2024-03-12T00:28:28.267Z,23.98
2024-03-12T00:30:56.084Z,23.58
2024-03-12T00:33:24.110Z,23.04
2024-03-12T00:35:53.836Z,23.27
2024-03-12T00:38:21.985Z,23.48
2024-03-12T00:40:49.855Z,23.80
2024-03-12T00:43:18.008Z,23.92
2024-03-12T00:45:45.608Z,23.67
2024-03-12T00:48:15.021Z,23.82
2024-03-12T00:50:44.142Z,23.84
2024-03-12T00:53:13.390Z,22.99
2024-03-12T00:55:41.233Z,24.34
2024-03-12T00:58:09.425Z,23.41
2024-03-12T01:00:37.030Z,24.14
2024-03-12T01:03:05.206Z,23.05
2024-03-12T01:05:33.478Z,23.84
2024-03-12T01:08:01.568Z,24.17
2024-03-12T01:10:32.968Z,23.57
2024-03-12T01:13:03.752Z,24.04
2024-03-12T01:15:31.564Z,24.21
2024-03-12T01:17:59.505Z,24.13
2024-03-12T01:20:27.652Z,24.26
2024-03-12T01:22:55.986Z,24.24
2024-03-12T01:25:24.190Z,23.72
2024-03-12T01:27:53.772Z,24.15
2024-03-12T01:30:21.373Z,23.98
2024-03-12T01:32:49.651Z,24.02
2024-03-12T01:35:17.811Z,23.38
2024-03-12T01:37:45.495Z,24.00
2024-03-12T01:40:14.498Z,23.69
2024-03-12T01:42:42.564Z,23.90
2024-03-12T01:45:11.776Z,24.00
2024-03-12T01:47:39.388Z,23.29
2024-03-12T01:50:08.430Z,23.97
2024-03-12T01:52:36.139Z,24.25
2024-03-12T01:55:03.897Z,23.75
2024-03-12T01:57:32.615Z,21.13
2024-03-12T02:00:00.382Z,23.76
2024-03-12T02:02:30.202Z,23.05
2024-03-12T02:04:58.136Z,23.37
2024-03-12T02:07:26.171Z,23.20
2024-03-12T02:09:54.190Z,23.37
2024-03-12T02:12:22.245Z,23.96
2024-03-12T02:14:49.996Z,23.25
2024-03-12T02:17:17.844Z,24.02
2024-03-12T02:19:47.041Z,23.65
2024-03-12T02:22:14.934Z,23.24
2024-03-12T02:24:44.159Z,22.83
2024-03-12T02:27:12.097Z,22.44
2024-03-12T02:29:39.685Z,23.56
2024-03-12T02:32:07.547Z,24.06
2024-03-12T02:34:35.569Z,23.24
2024-03-12T02:37:03.332Z,23.74
2024-03-12T02:39:31.410Z,23.25
2024-03-12T02:42:01.110Z,23.25
2024-03-12T02:44:28.702Z,23.27
2024-03-12T02:46:56.575Z,23.49
2024-03-12T02:49:24.793Z,23.51
2024-03-12T02:51:52.563Z,23.09
2024-03-12T02:54:20.394Z,23.53
2024-03-12T02:56:48.869Z,24.22
2024-03-12T02:59:17.927Z,23.72
2024-03-12T03:01:45.861Z,23.86
2024-03-12T03:04:13.825Z,23.97
2024-03-12T03:06:41.428Z,23.98
2024-03-12T03:09:09.133Z,23.88
2024-03-12T03:11:37.389Z,24.21
2024-03-12T03:14:05.071Z,22.92
2024-03-12T03:16:34.400Z,23.24
2024-03-12T03:19:02.664Z,23.75
2024-03-12T03:21:30.337Z,23.46
2024-03-12T03:23:58.247Z,23.71
2024-03-12T03:26:26.514Z,23.05
2024-03-12T03:28:54.064Z,22.91
2024-03-12T03:31:21.891Z,22.62
2024-03-12T03:33:51.401Z,23.68
2024-03-12T03:36:19.061Z,23.97
2024-03-12T03:38:46.644Z,23.03
2024-03-12T03:41:14.777Z,22.40
2024-03-12T03:43:42.352Z,23.42
2024-03-12T03:46:10.372Z,22.60
2024-03-12T03:48:38.384Z,23.60
2024-03-12T03:51:07.490Z,23.19
2024-03-12T03:53:35.466Z,23.58
2024-03-12T03:56:03.776Z,23.23
2024-03-12T03:58:31.313Z,23.27
2024-03-12T04:00:59.267Z,23.02
2024-03-12T04:03:27.629Z,23.57
2024-03-12T04:05:55.228Z,23.20
2024-03-12T04:08:24.396Z,23.72
2024-03-12T04:10:52.676Z,22.80
2024-03-12T04:13:20.333Z,23.27
2024-03-12T04:15:48.290Z,22.79
2024-03-12T04:18:16.610Z,23.13
2024-03-12T04:20:44.210Z,22.13
2024-03-12T04:23:12.144Z,23.52
2024-03-12T04:25:41.582Z,22.96
2024-03-12T04:28:09.201Z,23.58
2024-03-12T04:30:36.761Z,23.21
2024-03-12T04:33:05.383Z,22.00
2024-03-12T04:35:32.995Z,21.44
2024-03-12T04:38:00.646Z,23.60
2024-03-12T04:40:29.164Z,22.95
2024-03-12T04:42:58.279Z,22.34
2024-03-12T04:45:25.986Z,24.11
2024-03-12T04:47:54.003Z,23.02
2024-03-12T04:50:21.604Z,22.07
2024-03-12T04:52:49.509Z,22.68
2024-03-12T04:55:18.262Z,21.01
2024-03-12T04:57:45.890Z,21.80
2024-03-12T05:00:16.862Z,22.82
2024-03-12T05:02:45.567Z,22.05
2024-03-12T05:05:13.299Z,22.41
2024-03-12T05:07:41.171Z,22.18
2024-03-12T05:10:10.213Z,22.00
2024-03-12T05:12:37.888Z,20.20
2024-03-12T05:15:06.841Z,22.24
2024-03-12T05:17:36.818Z,21.53
2024-03-12T05:20:06.109Z,20.87
2024-03-12T05:22:33.816Z,22.40
2024-03-12T05:25:01.820Z,22.34
2024-03-12T05:27:29.626Z,22.34
2024-03-12T05:29:57.554Z,21.95
2024-03-12T05:32:25.436Z,21.89
2024-03-12T05:34:54.604Z,22.36
2024-03-12T05:37:22.514Z,21.16
2024-03-12T05:39:50.257Z,22.67
2024-03-12T05:42:17.938Z,21.15
2024-03-12T05:44:45.910Z,21.65
2024-03-12T05:47:14.009Z,21.96
2024-03-12T05:49:41.680Z,21.24
2024-03-12T05:52:11.094Z,20.45
2024-03-12T05:54:39.004Z,20.11
2024-03-12T05:57:06.704Z,21.37
2024-03-12T05:59:34.318Z,22.03
2024-03-12T06:04:44.873Z,20.88
2024-03-12T06:07:16.825Z,21.57
2024-03-12T06:09:46.957Z,21.34
2024-03-12T06:12:14.865Z,20.81
2024-03-12T06:14:42.563Z,21.11
2024-03-12T06:17:10.213Z,21.22
2024-03-12T06:19:38.420Z,21.19
2024-03-12T06:22:06.297Z,21.91
2024-03-12T06:24:36.679Z,21.52
2024-03-12T06:27:05.348Z,21.97
2024-03-12T06:29:33.359Z,21.42
2024-03-12T06:32:01.327Z,20.61
2024-03-12T06:34:29.330Z,20.57
2024-03-12T06:36:57.240Z,21.82
2024-03-12T06:39:26.445Z,22.08
2024-03-12T06:41:55.852Z,22.12
2024-03-12T06:44:23.535Z,21.86
2024-03-12T06:46:51.473Z,22.29
2024-03-12T06:49:19.217Z,21.98
2024-03-12T06:51:47.020Z,21.52
2024-03-12T06:54:14.765Z,21.99
2024-03-12T06:56:42.909Z,21.15
2024-03-12T06:59:13.234Z,21.75
2024-03-12T07:01:42.126Z,22.01
2024-03-12T07:04:10.287Z,22.16
2024-03-12T07:06:38.190Z,21.71
2024-03-12T07:09:05.982Z,21.40
2024-03-12T07:11:34.264Z,21.99
2024-03-12T07:14:01.933Z,22.34
2024-03-12T07:16:31.297Z,22.54
2024-03-12T07:18:59.100Z,22.01
2024-03-12T07:21:26.745Z,22.26
2024-03-12T07:23:54.830Z,22.54
2024-03-12T07:26:23.012Z,22.16
2024-03-12T07:28:50.804Z,22.20
2024-03-12T07:31:19.140Z,22.82
2024-03-12T07:33:49.497Z,23.00
2024-03-12T07:36:17.203Z,23.00
2024-03-12T07:38:44.777Z,22.58
2024-03-12T07:41:12.782Z,22.45
2024-03-12T07:43:40.609Z,22.71
2024-03-12T07:46:09.342Z,22.67
2024-03-12T07:48:37.482Z,22.94
2024-03-12T07:51:06.834Z,23.12
2024-03-12T07:53:34.782Z,22.91
2024-03-12T07:56:02.837Z,22.25
2024-03-12T07:58:30.512Z,22.90
2024-03-12T08:00:58.300Z,22.95
2024-03-12T08:03:27.088Z,21.01
2024-03-12T08:05:55.243Z,23.11
2024-03-12T08:08:24.711Z,23.27
2024-03-12T08:10:53.570Z,23.14
2024-03-12T08:13:21.295Z,23.40
2024-03-12T08:15:48.964Z,24.18
2024-03-12T08:18:21.326Z,23.43
2024-03-12T08:20:50.493Z,23.77
2024-03-12T08:23:19.530Z,23.03
2024-03-12T08:25:56.299Z,23.37
2024-03-12T08:28:28.051Z,23.25
2024-03-12T08:30:59.972Z,23.76
2024-03-12T08:33:34.023Z,23.71
2024-03-12T08:36:02.046Z,23.68
2024-03-12T08:38:29.644Z,23.61
2024-03-12T08:40:59.307Z,24.22
2024-03-12T08:43:26.613Z,23.53
2024-03-12T08:45:54.297Z,23.40
2024-03-12T08:48:22.066Z,23.37
2024-03-12T08:50:49.766Z,23.98
2024-03-12T08:53:20.428Z,23.01
2024-03-12T08:55:48.757Z,23.50
2024-03-12T08:58:17.892Z,23.12
2024-03-12T09:00:45.614Z,23.42
2024-03-12T09:03:13.640Z,25.15
2024-03-12T09:05:41.337Z,24.16
2024-03-12T09:08:08.928Z,24.18
2024-03-12T09:10:36.686Z,23.83
2024-03-12T09:13:05.207Z,23.42
2024-03-12T09:15:34.305Z,23.06
2024-03-12T09:18:02.438Z,22.87
2024-03-12T09:20:30.489Z,23.76
2024-03-12T09:22:58.124Z,22.99
2024-03-12T09:25:25.979Z,22.59
2024-03-12T09:27:54.051Z,21.89
2024-03-12T09:30:21.873Z,19.94
2024-03-12T09:32:51.322Z,23.62
2024-03-12T09:35:20.204Z,21.88
2024-03-12T09:37:47.856Z,22.45
2024-03-12T09:40:15.956Z,23.71
2024-03-12T09:42:48.349Z,23.46
2024-03-12T09:45:16.393Z,22.31
2024-03-12T09:47:44.365Z,20.76
2024-03-12T09:50:14.308Z,22.71
2024-03-12T09:52:41.670Z,23.02
2024-03-12T09:55:10.847Z,22.89
2024-03-12T09:57:39.124Z,22.24
2024-03-12T10:00:07.898Z,22.44
2024-03-12T10:02:36.183Z,22.22
2024-03-12T10:05:04.482Z,22.18
2024-03-12T10:07:34.369Z,22.29
2024-03-12T10:10:02.684Z,22.65
2024-03-12T10:12:30.398Z,22.38
2024-03-12T10:14:58.229Z,21.49
2024-03-12T10:17:26.171Z,21.53
2024-03-12T10:20:07.498Z,22.15
2024-03-12T10:22:36.699Z,21.88
2024-03-12T10:25:09.170Z,21.96
2024-03-12T10:28:03.425Z,21.58
2024-03-12T10:30:35.923Z,22.22
2024-03-12T10:33:12.817Z,20.54
2024-03-12T10:35:41.037Z,21.63
2024-03-12T10:38:10.427Z,21.41
2024-03-12T10:40:38.150Z,20.65
2024-03-12T10:43:06.416Z,21.42
2024-03-12T10:45:34.796Z,20.93
2024-03-12T10:48:05.235Z,21.60
2024-03-12T10:50:33.066Z,22.09
2024-03-12T10:53:00.786Z,21.82
2024-03-12T10:55:30.508Z,21.83
2024-03-12T10:58:01.826Z,21.95
2024-03-12T11:00:31.114Z,21.18
2024-03-12T11:02:59.090Z,21.15
2024-03-12T11:05:27.924Z,20.79
2024-03-12T11:07:56.758Z,19.62
2024-03-12T11:10:25.970Z,21.67
2024-03-12T11:12:56.982Z,20.92
2024-03-12T11:15:25.089Z,21.83
2024-03-12T11:17:53.032Z,21.41
2024-03-12T11:20:24.737Z,21.06
2024-03-12T11:22:55.298Z,19.88
2024-03-12T11:25:28.773Z,20.34
2024-03-12T11:28:20.374Z,19.77
2024-03-12T11:30:50.258Z,20.14
2024-03-12T11:33:43.428Z,19.96
2024-03-12T11:36:12.401Z,20.16
2024-03-12T11:38:40.876Z,19.75
2024-03-12T11:41:09.091Z,19.98
2024-03-12T11:43:40.318Z,19.69
2024-03-12T11:46:09.406Z,19.70
2024-03-12T11:48:38.579Z,19.94
2024-03-12T11:51:07.465Z,19.59
2024-03-12T11:53:36.048Z,20.32
2024-03-12T11:56:11.723Z,19.72
2024-03-12T11:58:42.571Z,19.50
2024-03-12T12:01:11.319Z,18.98
2024-03-12T12:03:39.874Z,19.94
2024-03-12T12:06:08.991Z,19.82
2024-03-12T12:08:45.643Z,19.90
2024-03-12T12:11:18.937Z,19.64
2024-03-12T12:13:48.610Z,18.54
2024-03-12T12:16:17.791Z,19.33
2024-03-12T12:18:46.669Z,20.29
2024-03-12T12:21:15.513Z,19.20
2024-03-12T12:23:44.390Z,19.00
2024-03-12T12:26:15.592Z,19.31
2024-03-12T12:28:43.282Z,20.00
2024-03-12T12:31:14.322Z,19.47
2024-03-12T12:33:47.272Z,19.32
2024-03-12T12:36:16.597Z,19.65
2024-03-12T12:38:49.435Z,19.12
2024-03-12T12:41:20.656Z,18.92
2024-03-12T12:43:48.675Z,19.23
2024-03-12T12:46:18.265Z,18.99
2024-03-12T12:48:48.844Z,19.08
2024-03-12T12:51:16.640Z,19.18
2024-03-12T12:53:44.543Z,19.32
2024-03-12T12:56:12.845Z,18.86
2024-03-12T12:58:40.430Z,18.83
2024-03-12T13:01:09.173Z,18.96
2024-03-12T13:03:40.991Z,18.45
2024-03-12T13:06:15.593Z,19.34
2024-03-12T13:08:44.988Z,19.51
2024-03-12T13:11:13.434Z,18.68
2024-03-12T13:13:42.570Z,19.07
2024-03-12T13:16:12.363Z,18.83
2024-03-12T13:18:43.821Z,19.75
2024-03-12T13:21:13.008Z,19.11
2024-03-12T13:23:40.598Z,18.49
2024-03-12T13:26:08.221Z,18.71
2024-03-12T13:28:36.235Z,19.34
2024-03-12T13:31:04.048Z,20.50
2024-03-12T13:33:31.970Z,20.01
2024-03-12T13:36:01.847Z,19.74
2024-03-12T13:38:29.425Z,19.58
2024-03-12T13:40:57.231Z,19.24
2024-03-12T13:43:25.982Z,20.07
2024-03-12T13:45:54.275Z,19.88
2024-03-12T13:48:22.347Z,20.14
2024-03-12T13:50:50.181Z,19.39
2024-03-12T13:53:19.150Z,19.95
2024-03-12T13:55:47.090Z,19.63
2024-03-12T13:58:14.821Z,19.44
2024-03-12T14:00:42.694Z,20.15
2024-03-12T14:03:11.494Z,19.77
2024-03-12T14:05:39.568Z,19.57
2024-03-12T14:08:07.585Z,20.02
2024-03-12T14:10:36.648Z,19.83
2024-03-12T14:13:04.950Z,19.53
2024-03-12T14:15:32.559Z,18.99
2024-03-12T14:18:00.331Z,19.48
2024-03-12T14:20:29.065Z,20.04
2024-03-12T14:22:57.144Z,20.72
2024-03-12T14:25:25.455Z,21.14
2024-03-12T14:28:12.810Z,20.97
2024-03-12T14:30:40.552Z,20.69
2024-03-12T14:33:08.204Z,20.50
2024-03-12T14:35:36.625Z,20.78
2024-03-12T14:38:05.035Z,20.91
2024-03-12T14:40:32.649Z,21.07
2024-03-12T14:43:02.625Z,21.45
2024-03-12T14:45:30.324Z,22.38
2024-03-12T14:47:58.113Z,21.77
2024-03-12T14:50:26.614Z,21.92
2024-03-12T14:52:54.220Z,21.80
2024-03-12T14:55:21.846Z,21.91
2024-03-12T14:57:50.193Z,22.24
2024-03-12T15:00:19.846Z,21.06
2024-03-12T15:02:47.413Z,21.87
2024-03-12T15:05:15.208Z,21.86
2024-03-12T15:07:45.042Z,20.49
2024-03-12T15:10:12.864Z,22.43
2024-03-12T15:12:42.578Z,22.32
2024-03-12T15:15:11.483Z,22.09
2024-03-12T15:17:40.760Z,21.85
2024-03-12T15:20:09.339Z,22.02
2024-03-12T15:22:36.996Z,21.84
2024-03-12T15:25:04.975Z,21.92
2024-03-12T15:27:33.125Z,21.74
2024-03-12T15:30:00.677Z,21.08
2024-03-12T15:32:28.213Z,21.06
2024-03-12T15:37:46.119Z,21.35
2024-03-12T15:40:14.325Z,21.79
2024-03-12T15:42:44.363Z,21.40
2024-03-12T15:45:13.090Z,21.35
2024-03-12T15:47:41.670Z,20.87
2024-03-12T15:50:11.188Z,22.02
2024-03-12T15:52:38.658Z,21.77
2024-03-12T15:55:07.644Z,21.86
2024-03-12T15:57:36.522Z,21.02
2024-03-12T16:00:06.836Z,21.66
2024-03-12T16:02:38.261Z,21.51
2024-03-12T16:05:07.207Z,22.11
2024-03-12T16:07:36.361Z,22.00
2024-03-12T16:10:04.628Z,20.45
2024-03-12T16:12:32.620Z,22.05
2024-03-12T16:15:00.351Z,21.30
2024-03-12T16:17:28.289Z,21.70
2024-03-12T16:20:15.394Z,21.56
2024-03-12T16:22:45.794Z,21.03
2024-03-12T16:25:13.793Z,21.56
2024-03-12T16:27:43.979Z,21.85
2024-03-12T16:30:15.145Z,21.88
2024-03-12T16:32:44.482Z,21.74
2024-03-12T16:35:12.220Z,21.24
2024-03-12T16:37:40.056Z,21.90
2024-03-12T16:40:11.059Z,21.64
2024-03-12T16:42:38.810Z,21.26
2024-03-12T16:45:07.678Z,21.45
2024-03-12T16:47:35.599Z,21.93
2024-03-12T16:50:03.576Z,21.86
2024-03-12T16:52:31.778Z,21.85
2024-03-12T16:55:00.235Z,22.01
2024-03-12T16:57:30.061Z,21.81
2024-03-12T16:59:58.413Z,21.82
2024-03-12T17:02:26.639Z,22.34
2024-03-12T17:04:54.839Z,21.99
2024-03-12T17:07:24.557Z,21.89
2024-03-12T17:09:52.987Z,22.18
2024-03-12T17:12:22.418Z,21.70
2024-03-12T17:14:51.616Z,20.29
2024-03-12T17:17:24.226Z,21.76
2024-03-12T17:19:52.425Z,21.68
2024-03-12T17:22:20.732Z,22.01
2024-03-12T17:24:49.549Z,21.87
2024-03-12T17:27:17.484Z,22.05
2024-03-12T17:29:45.604Z,21.93
2024-03-12T17:32:16.239Z,21.87
2024-03-12T17:34:44.393Z,21.93
2024-03-12T17:37:14.820Z,22.17
2024-03-12T17:39:46.073Z,21.69
2024-03-12T17:42:14.694Z,22.26
2024-03-12T17:44:43.379Z,21.38
2024-03-12T17:47:13.155Z,22.20
2024-03-12T17:49:44.041Z,22.40
2024-03-12T17:52:12.640Z,21.55
2024-03-12T17:54:41.229Z,21.28
2024-03-12T17:57:11.414Z,22.45
2024-03-12T17:59:39.812Z,21.12
2024-03-12T18:02:09.589Z,21.67
2024-03-12T18:04:37.973Z,21.68
2024-03-12T18:07:16.279Z,21.09
2024-03-12T18:09:50.265Z,21.06
2024-03-12T18:12:18.598Z,21.68
2024-03-12T18:14:46.892Z,21.51
2024-03-12T18:17:14.431Z,22.14
2024-03-12T18:19:42.337Z,21.75
2024-03-12T18:22:12.906Z,22.11
2024-03-12T18:24:40.653Z,22.08
2024-03-12T18:27:08.495Z,21.71
2024-03-12T18:29:36.124Z,21.94
2024-03-12T18:32:04.280Z,21.89
2024-03-12T18:34:32.192Z,19.57
2024-03-12T18:37:00.113Z,21.47
2024-03-12T18:39:29.450Z,22.27
2024-03-12T18:41:57.979Z,22.36
2024-03-12T18:44:25.617Z,22.07
2024-03-12T18:46:53.178Z,22.15
2024-03-12T18:49:21.378Z,22.72
2024-03-12T18:51:49.697Z,21.51
2024-03-12T18:54:18.046Z,22.34
2024-03-12T18:56:47.936Z,21.77
2024-03-12T18:59:15.965Z,22.58
2024-03-12T19:01:46.959Z,22.45
2024-03-12T19:04:15.126Z,22.17
2024-03-12T19:06:44.275Z,22.92
2024-03-12T19:09:12.577Z,22.41
2024-03-12T19:11:40.946Z,22.26
2024-03-12T19:14:10.626Z,21.83
2024-03-12T19:16:38.767Z,22.34
2024-03-12T19:19:06.910Z,23.07
2024-03-12T19:21:35.061Z,23.08
2024-03-12T19:24:03.741Z,22.82
2024-03-12T19:26:33.033Z,21.76
2024-03-12T19:29:00.594Z,21.84
2024-03-12T19:31:30.516Z,22.64
2024-03-12T19:33:58.147Z,22.85
2024-03-12T19:36:28.637Z,22.36
2024-03-12T19:38:57.042Z,22.30
2024-03-12T19:41:25.678Z,22.59
2024-03-12T19:43:53.870Z,22.61
2024-03-12T19:46:21.830Z,22.73
2024-03-12T19:48:51.818Z,21.94
2024-03-12T19:51:19.881Z,22.18
2024-03-12T19:53:48.618Z,22.28
2024-03-12T19:56:17.627Z,21.76
2024-03-12T19:58:45.127Z,22.03
2024-03-12T20:01:12.969Z,21.89
2024-03-12T20:03:41.335Z,22.75
2024-03-12T20:06:10.370Z,22.01
2024-03-12T20:08:38.194Z,22.92
2024-03-12T20:11:06.033Z,22.76
2024-03-12T20:13:33.827Z,22.04
2024-03-12T20:16:01.765Z,21.95
2024-03-12T20:18:29.406Z,22.93
2024-03-12T20:20:56.957Z,22.55
2024-03-12T20:23:26.580Z,22.33
2024-03-12T20:25:54.200Z,23.30
2024-03-12T20:28:21.882Z,22.69
2024-03-12T20:30:49.681Z,23.00
2024-03-12T20:33:17.420Z,22.09
2024-03-12T20:36:03.484Z,22.96
2024-03-12T20:38:33.168Z,22.22
2024-03-12T20:41:00.729Z,22.74
2024-03-12T20:43:28.681Z,22.36
2024-03-12T20:45:56.528Z,22.32
2024-03-12T20:48:24.198Z,22.64
2024-03-12T20:50:51.853Z,22.77
2024-03-12T20:53:19.803Z,22.60
2024-03-12T20:58:35.233Z,22.18
2024-03-12T21:01:02.980Z,22.92
2024-03-12T21:03:30.520Z,21.54
2024-03-12T21:05:58.421Z,21.47
2024-03-12T21:08:26.041Z,22.43
2024-03-12T21:10:55.067Z,21.93
2024-03-12T21:13:23.332Z,22.59
2024-03-12T21:15:50.947Z,21.92
2024-03-12T21:18:18.589Z,22.70
2024-03-12T21:20:47.200Z,22.11
2024-03-12T21:23:15.372Z,21.51
2024-03-12T21:25:43.482Z,22.33
2024-03-12T21:28:13.111Z,22.45
2024-03-12T21:30:41.328Z,21.75
2024-03-12T21:33:09.726Z,22.20
2024-03-12T21:35:37.713Z,22.43
2024-03-12T21:38:05.498Z,22.17
2024-03-12T21:40:33.401Z,22.77
2024-03-12T21:43:01.195Z,22.79
2024-03-12T21:45:30.323Z,22.58
2024-03-12T21:47:58.172Z,21.22
2024-03-12T21:50:26.249Z,22.03
2024-03-12T21:52:53.807Z,21.97
2024-03-12T21:55:22.695Z,23.04
2024-03-12T21:57:51.607Z,22.05
2024-03-12T22:00:20.738Z,22.77
2024-03-12T22:02:50.306Z,22.54
2024-03-12T22:05:18.474Z,22.69
2024-03-12T22:07:46.172Z,22.33
2024-03-12T22:10:14.236Z,23.01
2024-03-12T22:12:42.812Z,21.22
2024-03-12T22:15:11.110Z,22.37
2024-03-12T22:17:38.975Z,22.47
2024-03-12T22:20:08.706Z,22.00
2024-03-12T22:22:36.574Z,22.20
2024-03-12T22:25:04.816Z,21.82
2024-03-12T22:27:32.597Z,22.77
2024-03-12T22:30:00.372Z,22.45
2024-03-12T22:32:28.318Z,21.73
2024-03-12T22:34:56.242Z,21.74
2024-03-12T22:37:25.670Z,22.41
2024-03-12T22:39:53.364Z,22.72
2024-03-12T22:42:21.608Z,21.88
2024-03-12T22:44:49.802Z,22.56
2024-03-12T22:47:18.156Z,22.59
2024-03-12T22:50:05.175Z,22.20
2024-03-12T22:52:34.367Z,21.34
2024-03-12T22:55:02.477Z,21.53
2024-03-12T22:57:30.568Z,22.17
2024-03-12T22:59:58.660Z,22.23
2024-03-12T23:02:26.761Z,22.76
2024-03-12T23:04:54.955Z,22.04
2024-03-12T23:07:23.056Z,21.67
2024-03-12T23:09:52.768Z,22.67
2024-03-12T23:12:20.563Z,22.36
2024-03-12T23:14:48.201Z,22.32
2024-03-12T23:17:15.974Z,22.00
2024-03-12T23:19:43.842Z,22.82
2024-03-12T23:22:11.597Z,22.08
2024-03-12T23:24:39.432Z,22.14
2024-03-12T23:27:08.931Z,23.33
2024-03-12T23:29:36.549Z,22.45
2024-03-12T23:32:04.819Z,23.22
2024-03-12T23:34:32.693Z,22.32
2024-03-12T23:37:00.560Z,22.39
2024-03-12T23:39:28.435Z,22.55
2024-03-12T23:41:56.920Z,21.97
2024-03-12T23:44:25.946Z,22.00
2024-03-12T23:46:53.771Z,22.29
2024-03-12T23:49:21.808Z,22.73
2024-03-12T23:51:49.439Z,22.74
2024-03-12T23:54:17.357Z,22.77
2024-03-12T23:56:45.201Z,22.25
2024-03-12T23:59:12.832Z,22.66
